Time;durP1;ratioP1;P1;durP2;ratioP2;P2;SDS_P1;SDS_P2;PMS_P1;PMS_P2;Temp;Humidity;BMP_temperature;BMP_pressure;BME280_temperature;BME280_humidity;BME280_pressure;Samples;Min_cycle;Max_cycle;Signal;HPM_P1;HPM_P2
2021/11/28 00:01:13;;;;;;;15.53;11.13;;;;;;;3.90;91.69;99473.88;4950859;28;20237;-76
2021/11/28 00:03:39;;;;;;;15.17;9.77;;;;;;;3.87;91.19;99477.22;4950809;28;20220;-75
2021/11/28 00:06:09;;;;;;;14.80;9.60;;;;;;;3.85;91.53;99480.53;4949614;29;20216;-75
2021/11/28 00:13:48;;;;;;;13.20;9.57;;;;;;;3.74;91.17;99482.81;4954122;29;20181;-76
2021/11/28 00:16:15;;;;;;;13.53;8.30;;;;;;;3.73;90.55;99488.69;4968787;28;20185;-76
2021/11/28 00:18:41;;;;;;;14.60;9.87;;;;;;;3.69;90.88;99486.88;4953805;28;20195;-76
2021/11/28 00:21:06;;;;;;;14.87;10.03;;;;;;;3.67;90.96;99488.53;4953828;28;20216;-76
2021/11/28 00:23:32;;;;;;;12.03;8.30;;;;;;;3.66;90.36;99486.84;4954139;28;20419;-76
2021/11/28 00:25:58;;;;;;;12.20;8.87;;;;;;;3.62;90.96;99495.16;4954117;29;20177;-76
2021/11/28 00:28:24;;;;;;;12.03;8.60;;;;;;;3.57;90.16;99489.13;4968859;28;20644;-75
2021/11/28 00:30:51;;;;;;;11.00;8.13;;;;;;;3.52;90.23;99482.25;4953854;28;20572;-76
2021/11/28 00:33:16;;;;;;;11.43;8.37;;;;;;;3.51;90.18;99489.00;4965535;28;20184;-76
2021/11/28 00:35:42;;;;;;;11.07;8.23;;;;;;;3.53;90.63;99489.00;4949326;28;20268;-76
2021/11/28 00:38:07;;;;;;;11.13;7.90;;;;;;;3.52;91.06;99485.66;4965488;28;20204;-76
2021/11/28 00:40:33;;;;;;;11.97;8.23;;;;;;;3.46;90.72;99492.22;4957713;28;20245;-76
2021/11/28 00:42:59;;;;;;;11.17;8.00;;;;;;;3.50;90.77;99488.94;4934634;29;20209;-76
2021/11/28 00:45:25;;;;;;;11.90;8.77;;;;;;;3.47;90.52;99488.88;4934572;29;20182;-76
2021/11/28 00:47:51;;;;;;;11.00;8.50;;;;;;;3.43;90.69;99487.94;4963884;28;20209;-76
2021/11/28 00:52:43;;;;;;;8.97;7.13;;;;;;;3.38;90.87;99492.03;4953566;28;20581;-76
2021/11/28 00:55:10;;;;;;;8.73;6.93;;;;;;;3.37;90.50;99497.03;4953477;28;20212;-76
2021/11/28 00:57:36;;;;;;;9.70;7.20;;;;;;;3.33;90.44;99497.78;4968337;28;20679;-76
2021/11/28 01:00:08;;;;;;;10.13;7.33;;;;;;;3.31;91.12;99495.19;4953019;28;20267;-76
2021/11/28 01:02:34;;;;;;;9.67;7.20;;;;;;;3.26;90.63;99495.94;4968072;28;20231;-76
2021/11/28 01:05:00;;;;;;;9.73;7.67;;;;;;;3.24;90.63;99500.94;4953195;28;20193;-76
2021/11/28 01:07:26;;;;;;;10.40;7.73;;;;;;;3.23;91.23;99501.75;4953181;28;20209;-76
2021/11/28 01:09:53;;;;;;;10.63;7.87;;;;;;;3.26;91.20;99506.88;4953061;29;20185;-76
2021/11/28 01:12:19;;;;;;;9.20;7.37;;;;;;;3.25;91.18;99507.69;4953139;28;20209;-76
2021/11/28 01:14:48;;;;;;;9.83;7.60;;;;;;;3.25;91.12;99504.31;4952987;29;20324;-76
2021/11/28 01:17:13;;;;;;;10.07;8.07;;;;;;;3.26;90.56;99509.41;4953039;29;20198;-76
2021/11/28 01:19:39;;;;;;;9.93;7.53;;;;;;;3.22;91.03;99510.13;4967416;28;20212;-76
2021/11/28 01:22:09;;;;;;;8.37;6.80;;;;;;;3.19;90.72;99512.59;4952226;28;20709;-76
2021/11/28 01:24:35;;;;;;;9.37;7.40;;;;;;;3.17;91.27;99518.44;4952886;29;20195;-76
2021/11/28 01:27:02;;;;;;;9.27;7.07;;;;;;;3.17;90.71;99519.28;4951456;29;20228;-76
2021/11/28 01:29:27;;;;;;;9.57;7.27;;;;;;;3.16;90.89;99521.75;4967299;28;20193;-76
2021/11/28 01:31:53;;;;;;;10.23;7.47;;;;;;;3.15;90.96;99520.06;4967490;28;20205;-76
2021/11/28 01:34:20;;;;;;;10.33;7.43;;;;;;;3.09;90.95;99510.63;4964264;28;20555;-76
2021/11/28 01:36:45;;;;;;;10.80;7.77;;;;;;;3.12;91.04;99514.94;4948341;28;20281;-76
2021/11/28 01:39:11;;;;;;;10.13;7.50;;;;;;;3.12;91.50;99517.47;4948469;29;20554;-76
2021/11/28 01:41:37;;;;;;;9.43;7.17;;;;;;;3.14;91.51;99514.16;4920270;28;20312;-76
2021/11/28 01:44:05;;;;;;;9.77;7.77;;;;;;;3.14;91.13;99511.63;4948030;28;20205;-76
2021/11/28 01:46:31;;;;;;;9.53;7.30;;;;;;;3.10;91.65;99526.66;4952445;28;20196;-76
2021/11/28 01:48:57;;;;;;;9.80;7.53;;;;;;;3.09;91.89;99518.19;4966896;28;20192;-76
2021/11/28 01:51:25;;;;;;;10.13;7.50;;;;;;;3.04;91.93;99519.75;4967124;28;20217;-76
2021/11/28 01:53:53;;;;;;;10.80;6.70;;;;;;;3.05;91.90;99513.03;4967239;28;20292;-76
2021/11/28 01:56:20;;;;;;;9.33;6.40;;;;;;;3.03;91.25;99515.53;4966987;28;20217;-76
2021/11/28 01:58:46;;;;;;;7.80;5.80;;;;;;;3.01;91.44;99518.81;4951917;28;20639;-76
2021/11/28 02:01:15;;;;;;;7.03;5.50;;;;;;;3.01;90.62;99519.69;4967161;28;20303;-76
2021/11/28 02:03:42;;;;;;;7.13;5.13;;;;;;;2.97;91.38;99520.41;4950910;28;20197;-76
2021/11/28 02:06:14;;;;;;;7.63;5.53;;;;;;;2.96;90.99;99517.84;4967030;28;20215;-76
2021/11/28 02:08:41;;;;;;;8.07;5.70;;;;;;;2.96;90.90;99521.22;4964735;28;20228;-76
2021/11/28 02:11:08;;;;;;;10.93;6.90;;;;;;;2.77;91.10;99525.72;4986093;28;20254;-76
2021/11/28 02:13:34;;;;;;;10.63;8.00;;;;;;;2.73;91.48;99527.31;4986148;28;20227;-76
2021/11/28 02:16:06;;;;;;;12.63;8.63;;;;;;;2.69;91.52;99519.59;4970263;28;20236;-76
2021/11/28 02:18:33;;;;;;;10.67;7.30;;;;;;;2.71;92.06;99523.88;4969585;28;20188;-76
2021/11/28 02:21:02;;;;;;;10.67;7.87;;;;;;;2.71;91.83;99521.34;4985426;28;20308;-76
2021/11/28 02:23:29;;;;;;;13.40;9.03;;;;;;;2.73;91.12;99518.88;4970248;28;20180;-76
2021/11/28 02:25:59;;;;;;;12.10;9.03;;;;;;;2.63;91.39;99527.00;4969758;28;20247;-75
2021/11/28 02:28:26;;;;;;;11.73;8.43;;;;;;;2.65;91.64;99518.66;4985601;28;20207;-76
2021/11/28 02:30:52;;;;;;;13.17;9.20;;;;;;;2.67;92.06;99517.00;4985853;28;20251;-76
2021/11/28 02:33:17;;;;;;;13.83;9.77;;;;;;;2.68;92.12;99522.94;4959192;28;20546;-76
2021/11/28 02:35:45;;;;;;;14.00;10.07;;;;;;;2.57;91.84;99520.09;4963167;28;20206;-76
2021/11/28 02:38:11;;;;;;;15.93;10.97;;;;;;;2.59;92.19;99518.47;4932494;29;20182;-76
2021/11/28 02:40:39;;;;;;;15.23;10.67;;;;;;;2.53;92.70;99517.44;4934769;28;20233;-76
2021/11/28 02:43:05;;;;;;;17.37;11.00;;;;;;;2.48;92.93;99517.28;4947143;29;20193;-76
2021/11/28 02:45:33;;;;;;;18.60;12.40;;;;;;;2.48;92.76;99514.78;4965201;28;20232;-76
2021/11/28 02:48:01;;;;;;;18.90;11.87;;;;;;;2.50;92.49;99513.16;4965707;28;20205;-76
2021/11/28 02:50:27;;;;;;;19.97;12.87;;;;;;;2.45;92.53;99517.22;4951628;28;20231;-76
2021/11/28 02:52:58;;;;;;;19.60;12.67;;;;;;;2.41;92.37;99505.31;4966386;28;20259;-76
2021/11/28 02:55:35;;;;;;;21.63;13.33;;;;;;;2.47;92.63;99515.59;4950161;29;20228;-76
2021/11/28 02:58:01;;;;;;;21.73;13.47;;;;;;;2.48;92.50;99511.41;4965844;28;20192;-76
2021/11/28 03:00:31;;;;;;;22.03;14.17;;;;;;;2.45;92.71;99517.22;4951258;28;20197;-76
2021/11/28 03:02:56;;;;;;;22.53;13.80;;;;;;;2.48;93.30;99516.47;4951425;28;20247;-76
2021/11/28 03:05:24;;;;;;;20.90;13.27;;;;;;;2.48;92.62;99522.34;4949985;29;20208;-76
2021/11/28 03:07:50;;;;;;;21.50;13.43;;;;;;;2.52;93.65;99528.38;4957392;28;20215;-76
2021/11/28 03:10:39;;;;;;;21.07;13.57;;;;;;;2.50;93.24;99530.84;4969039;28;20188;-76
2021/11/28 03:13:14;;;;;;;22.67;14.80;;;;;;;2.53;93.38;99530.06;4969216;28;20193;-76
2021/11/28 03:15:40;;;;;;;23.70;14.73;;;;;;;2.53;93.19;99528.38;4969206;28;20184;-76
2021/11/28 03:18:13;;;;;;;23.37;14.70;;;;;;;2.54;92.93;99524.19;4969037;28;20678;-76
2021/11/28 03:20:40;;;;;;;24.77;15.87;;;;;;;2.52;93.02;99528.38;4968860;28;20244;-76
2021/11/28 03:23:06;;;;;;;22.63;14.50;;;;;;;2.50;92.72;99528.31;4970328;28;20188;-76
2021/11/28 03:25:32;;;;;;;23.47;14.10;;;;;;;2.56;93.33;99528.50;4970480;28;20670;-76
2021/11/28 03:28:00;;;;;;;22.30;13.87;;;;;;;2.53;92.54;99527.56;4968873;28;20944;-76
2021/11/28 03:30:26;;;;;;;22.77;14.63;;;;;;;2.56;92.73;99535.19;4984969;28;20192;-76
2021/11/28 03:33:12;;;;;;;22.73;14.57;;;;;;;2.57;92.75;99534.41;4956964;28;20197;-76
2021/11/28 03:36:06;;;;;;;20.97;14.33;;;;;;;2.55;93.13;99533.50;4952885;28;20252;-76
2021/11/28 03:38:33;;;;;;;23.23;14.23;;;;;;;2.53;93.44;99530.91;4966030;28;20185;-76
2021/11/28 03:40:58;;;;;;;20.53;13.83;;;;;;;2.54;93.05;99535.19;4952795;28;20718;-76
2021/11/28 03:43:24;;;;;;;21.63;13.73;;;;;;;2.59;93.45;99535.28;4964083;28;20229;-76
2021/11/28 03:45:49;;;;;;;22.23;13.97;;;;;;;2.59;92.74;99536.16;4968833;28;20209;-76
2021/11/28 03:48:15;;;;;;;19.27;12.53;;;;;;;2.58;92.89;99531.06;4952293;28;20216;-76
2021/11/28 03:50:44;;;;;;;20.20;13.33;;;;;;;2.61;92.74;99536.19;4952563;28;20233;-76
2021/11/28 03:53:11;;;;;;;18.30;12.17;;;;;;;2.61;92.78;99528.59;4968893;28;20200;-75
2021/11/28 03:55:36;;;;;;;18.83;12.17;;;;;;;2.61;92.95;99533.66;4954290;28;20192;-76
2021/11/28 03:58:04;;;;;;;20.77;13.23;;;;;;;2.61;93.23;99534.53;4953844;28;20177;-76
2021/11/28 04:00:30;;;;;;;19.00;12.60;;;;;;;2.61;92.73;99526.94;4952237;28;20193;-76
2021/11/28 04:03:03;;;;;;;17.63;12.07;;;;;;;2.61;92.39;99537.06;4968856;28;20209;-76
2021/11/28 04:05:30;;;;;;;19.93;12.47;;;;;;;2.63;92.82;99537.09;4952724;28;20193;-76
2021/11/28 04:07:56;;;;;;;19.07;12.67;;;;;;;2.53;92.47;99532.59;4977245;28;20223;-76
2021/11/28 04:10:22;;;;;;;18.40;11.87;;;;;;;2.61;93.08;99531.13;4988197;28;20188;-76
2021/11/28 04:12:48;;;;;;;17.60;11.83;;;;;;;2.62;92.77;99530.34;4988040;28;20181;-76
2021/11/28 04:15:15;;;;;;;17.23;11.63;;;;;;;2.61;92.23;99529.47;4987826;28;20280;-76
2021/11/28 04:17:50;;;;;;;18.87;12.27;;;;;;;2.66;93.20;99529.63;4987809;28;20186;-76
2021/11/28 04:20:17;;;;;;;17.73;11.60;;;;;;;2.61;93.00;99533.66;4987671;28;20202;-76
2021/11/28 04:22:43;;;;;;;17.20;11.93;;;;;;;2.63;92.67;99534.56;4971760;28;20279;-76
2021/11/28 04:25:13;;;;;;;15.60;10.83;;;;;;;2.63;93.04;99532.91;4973009;28;20199;-76
2021/11/28 04:27:39;;;;;;;18.40;12.23;;;;;;;2.60;92.47;99531.94;4971307;28;20221;-76
2021/11/28 04:30:07;;;;;;;17.63;12.07;;;;;;;2.61;92.53;99539.56;4987369;28;20191;-76
2021/11/28 04:32:34;;;;;;;17.00;11.67;;;;;;;2.60;92.10;99535.34;4987185;28;20224;-76
2021/11/28 04:35:00;;;;;;;16.50;11.70;;;;;;;2.61;91.86;99533.66;4968172;28;20204;-76
2021/11/28 04:37:26;;;;;;;16.87;11.67;;;;;;;2.61;92.50;99537.06;4967995;28;20244;-76
2021/11/28 04:39:52;;;;;;;16.73;11.60;;;;;;;2.62;92.09;99541.28;4948465;29;20201;-76
2021/11/28 04:42:19;;;;;;;17.27;11.63;;;;;;;2.62;92.11;99542.97;4935879;28;20237;-76
2021/11/28 04:44:48;;;;;;;17.73;11.60;;;;;;;2.62;92.74;99546.34;4948609;29;20189;-76
2021/11/28 04:47:15;;;;;;;15.73;11.27;;;;;;;2.61;92.04;99544.63;4958874;28;20573;-76
2021/11/28 04:49:46;;;;;;;14.37;10.63;;;;;;;2.58;92.75;99547.06;4968100;28;20193;-76
2021/11/28 04:52:12;;;;;;;16.80;11.47;;;;;;;2.61;92.11;99546.28;4968314;28;20701;-76
2021/11/28 04:54:38;;;;;;;16.73;11.00;;;;;;;2.60;92.92;99549.63;4951694;28;20201;-76
2021/11/28 04:57:04;;;;;;;16.13;10.53;;;;;;;2.57;92.27;99552.09;4951044;29;20185;-75
2021/11/28 04:59:30;;;;;;;16.87;11.37;;;;;;;2.54;92.57;99552.84;4967765;28;20189;-76
2021/11/28 05:01:56;;;;;;;18.23;12.27;;;;;;;2.50;92.48;99556.09;4967750;28;20264;-76
2021/11/28 05:04:25;;;;;;;16.77;11.93;;;;;;;2.43;93.17;99559.25;4967788;28;20215;-76
2021/11/28 05:06:50;;;;;;;15.93;11.13;;;;;;;2.44;93.12;99558.41;4953319;28;20553;-75
2021/11/28 05:09:36;;;;;;;17.70;11.47;;;;;;;2.45;92.61;99569.38;4948197;29;20285;-75
2021/11/28 05:12:01;;;;;;;17.30;11.93;;;;;;;2.39;92.40;99567.53;4933886;29;20210;-76
2021/11/28 05:14:27;;;;;;;17.27;11.57;;;;;;;2.39;93.39;99566.69;4958073;28;20189;-75
2021/11/28 05:16:53;;;;;;;19.27;12.50;;;;;;;2.43;93.69;99564.28;4966552;28;20192;-75
2021/11/28 05:19:31;;;;;;;20.07;12.97;;;;;;;2.42;93.13;99559.19;4967643;28;20295;-75
2021/11/28 05:22:02;;;;;;;19.37;13.03;;;;;;;2.43;93.68;99564.28;4953719;28;20256;-75
2021/11/28 05:24:36;;;;;;;20.00;12.80;;;;;;;2.44;93.14;99563.47;4954274;28;20536;-75
2021/11/28 05:27:02;;;;;;;22.77;14.17;;;;;;;2.47;93.30;99568.63;4952339;29;20698;-75
2021/11/28 05:29:28;;;;;;;19.70;13.00;;;;;;;2.49;93.67;99564.47;4952705;28;20185;-76
2021/11/28 05:31:54;;;;;;;20.73;13.20;;;;;;;2.49;93.04;99569.50;4967617;28;20217;-75
2021/11/28 05:34:38;;;;;;;19.57;12.47;;;;;;;2.52;93.26;99566.25;4953184;29;20188;-75
2021/11/28 05:37:22;;;;;;;21.43;14.17;;;;;;;2.59;93.80;99565.59;4952938;29;20216;-75
2021/11/28 05:39:52;;;;;;;21.70;12.90;;;;;;;2.56;93.43;99565.50;4967165;28;20204;-75
2021/11/28 05:42:18;;;;;;;21.20;13.40;;;;;;;2.59;93.39;99566.47;4951070;28;20577;-75
2021/11/28 05:44:43;;;;;;;20.50;12.80;;;;;;;2.63;93.29;99567.41;4950790;28;20243;-75
2021/11/28 05:47:35;;;;;;;20.03;12.40;;;;;;;2.64;93.28;99566.59;4965843;28;20303;-76
2021/11/28 05:50:07;;;;;;;19.13;12.90;;;;;;;2.66;93.81;99575.09;4952328;28;20212;-76
2021/11/28 05:52:39;;;;;;;20.10;12.90;;;;;;;2.70;94.00;99572.69;4967082;28;20577;-75
2021/11/28 05:55:05;;;;;;;21.33;13.53;;;;;;;2.68;93.22;99570.94;4952406;28;20605;-76
2021/11/28 05:57:33;;;;;;;19.03;13.03;;;;;;;2.66;93.08;99577.63;4952293;28;20245;-76
2021/11/28 05:59:59;;;;;;;20.30;13.40;;;;;;;2.67;93.87;99565.00;4950684;29;20279;-75
2021/11/28 06:02:24;;;;;;;20.57;12.87;;;;;;;2.69;93.63;99571.00;4951020;28;20686;-75
2021/11/28 06:05:04;;;;;;;19.93;13.10;;;;;;;2.70;93.82;99574.34;4967199;28;20642;-75
2021/11/28 06:07:50;;;;;;;19.07;12.40;;;;;;;2.68;93.47;99574.34;4951663;28;20597;-75
2021/11/28 06:10:15;;;;;;;18.57;12.23;;;;;;;2.67;93.49;99567.53;4952077;28;20185;-75
2021/11/28 06:12:41;;;;;;;17.10;11.77;;;;;;;2.67;94.30;99570.06;4966527;28;20280;-75
2021/11/28 06:15:07;;;;;;;19.90;12.83;;;;;;;2.64;93.66;99567.47;4953513;28;20189;-75
2021/11/28 06:17:58;;;;;;;20.23;13.33;;;;;;;2.67;93.18;99566.69;4951860;28;20201;-75
2021/11/28 06:20:47;;;;;;;19.90;12.83;;;;;;;2.69;93.48;99577.69;4950397;28;20221;-75
2021/11/28 06:23:18;;;;;;;20.30;13.30;;;;;;;2.68;93.61;99578.50;4950863;29;20232;-75
2021/11/28 06:25:43;;;;;;;23.03;13.97;;;;;;;2.69;93.84;99587.81;4950534;28;20209;-75
2021/11/28 06:28:09;;;;;;;21.53;12.90;;;;;;;2.70;93.90;99589.50;4950000;29;20243;-75
2021/11/28 06:30:35;;;;;;;20.07;12.23;;;;;;;2.66;93.44;99585.22;4950211;28;20213;-75
2021/11/28 06:33:21;;;;;;;20.40;13.40;;;;;;;2.67;93.82;99595.34;4951895;28;20234;-75
2021/11/28 06:36:05;;;;;;;22.77;14.37;;;;;;;2.69;94.32;99582.75;4952118;29;20271;-75
2021/11/28 06:39:08;;;;;;;22.30;13.53;;;;;;;2.68;93.86;99592.03;4949453;29;20192;-75
2021/11/28 06:41:34;;;;;;;21.03;13.73;;;;;;;2.69;94.52;99590.31;4949191;29;20295;-75
2021/11/28 06:43:59;;;;;;;25.03;13.93;;;;;;;2.71;94.21;99596.31;4955427;28;20192;-75
2021/11/28 06:46:25;;;;;;;23.77;13.73;;;;;;;2.69;94.45;99600.44;4966129;28;20189;-75
2021/11/28 06:48:51;;;;;;;23.67;14.40;;;;;;;2.69;93.55;99595.38;4950197;28;20213;-75
2021/11/28 06:51:33;;;;;;;26.97;15.37;;;;;;;2.72;94.55;99601.38;4951593;28;20235;-76
2021/11/28 06:54:03;;;;;;;26.77;14.63;;;;;;;2.74;93.94;99598.91;4965916;28;20185;-75
2021/11/28 06:56:34;;;;;;;23.77;14.33;;;;;;;2.72;94.13;99598.84;4951422;28;20231;-75
2021/11/28 06:59:06;;;;;;;26.47;14.90;;;;;;;2.72;94.51;99600.53;4949958;28;20189;-75
2021/11/28 07:01:34;;;;;;;27.47;14.97;;;;;;;2.73;93.99;99602.25;4950213;28;20583;-75
2021/11/28 07:04:18;;;;;;;24.67;14.30;;;;;;;2.71;94.57;99604.72;4951687;29;20208;-75
2021/11/28 07:06:59;;;;;;;28.07;15.50;;;;;;;2.69;94.22;99621.50;4951486;28;20344;-75
2021/11/28 07:09:27;;;;;;;26.20;15.53;;;;;;;2.71;94.64;99614.81;4949875;28;20196;-75
2021/11/28 07:11:55;;;;;;;26.40;15.73;;;;;;;2.71;94.35;99607.25;4965824;28;20205;-75
2021/11/28 07:14:21;;;;;;;28.70;15.73;;;;;;;2.68;94.51;99618.94;4949844;28;20191;-75
2021/11/28 07:16:46;;;;;;;31.13;16.33;;;;;;;2.67;94.76;99607.97;4965740;28;20188;-75
2021/11/28 07:19:12;;;;;;;31.13;17.17;;;;;;;2.67;94.86;99607.97;4950736;28;20189;-75
2021/11/28 07:21:58;;;;;;;32.13;17.00;;;;;;;2.72;94.76;99608.13;4955274;28;20268;-75
2021/11/28 07:24:25;;;;;;;32.77;17.67;;;;;;;2.71;94.41;99611.47;4969656;28;20184;-75
2021/11/28 07:26:51;;;;;;;32.73;17.23;;;;;;;2.71;94.94;99611.47;4953685;28;20211;-75
2021/11/28 07:29:18;;;;;;;33.17;17.93;;;;;;;2.75;94.45;99610.75;4953554;29;20193;-76
2021/11/28 07:31:43;;;;;;;33.70;17.93;;;;;;;2.77;94.59;99611.63;4953418;28;20209;-75
2021/11/28 07:34:10;;;;;;;31.93;17.90;;;;;;;2.73;94.59;99620.81;4954951;28;20547;-75
2021/11/28 07:36:54;;;;;;;33.07;18.20;;;;;;;2.77;94.43;99620.09;4955340;29;20227;-75
2021/11/28 07:39:21;;;;;;;33.53;17.97;;;;;;;2.79;94.90;99622.63;4955274;28;20181;-75
2021/11/28 07:41:51;;;;;;;33.33;17.70;;;;;;;2.76;94.78;99620.03;4938155;29;20220;-75
2021/11/28 07:44:35;;;;;;;33.90;17.97;;;;;;;2.79;95.49;99622.63;4954170;29;20710;-75
2021/11/28 07:47:20;;;;;;;31.90;17.93;;;;;;;2.78;94.82;99634.44;4954980;28;20236;-75
2021/11/28 07:50:10;;;;;;;36.33;18.90;;;;;;;2.79;95.18;99638.66;4954474;29;20588;-75
2021/11/28 07:52:37;;;;;;;37.93;19.27;;;;;;;2.81;94.82;99644.59;4953225;29;20205;-75
2021/11/28 07:55:06;;;;;;;37.90;20.10;;;;;;;2.83;94.57;99647.19;4953194;28;20689;-75
2021/11/28 07:57:52;;;;;;;35.90;18.23;;;;;;;2.83;95.14;99650.59;4972930;28;20289;-76
2021/11/28 08:00:40;;;;;;;35.53;18.50;;;;;;;2.85;95.21;99650.63;4958728;28;20606;-75
2021/11/28 08:03:17;;;;;;;33.37;18.27;;;;;;;2.83;95.04;99650.59;4969604;28;20196;-75
2021/11/28 08:06:01;;;;;;;35.03;18.40;;;;;;;2.83;94.54;99654.78;4954494;29;20204;-75
2021/11/28 08:08:56;;;;;;;36.07;19.10;;;;;;;2.86;94.58;99650.69;4969024;28;20244;-75
2021/11/28 08:11:39;;;;;;;34.50;18.67;;;;;;;2.86;95.57;99650.69;4952951;28;20213;-75
2021/11/28 08:14:04;;;;;;;35.90;19.23;;;;;;;2.88;95.26;99659.16;4954212;28;20192;-75
2021/11/28 08:16:30;;;;;;;34.43;18.67;;;;;;;2.91;94.85;99655.88;4969147;28;20850;-74
2021/11/28 08:18:55;;;;;;;35.27;18.63;;;;;;;2.91;95.28;99649.16;4954122;28;20834;-75
2021/11/28 08:21:26;;;;;;;32.37;17.67;;;;;;;2.93;95.22;99651.69;4968922;28;20221;-74
2021/11/28 08:23:53;;;;;;;34.27;18.53;;;;;;;2.98;94.47;99658.63;4954082;29;20201;-74
2021/11/28 08:26:19;;;;;;;33.97;18.40;;;;;;;3.01;94.42;99656.19;4953957;28;20189;-75
2021/11/28 08:28:44;;;;;;;35.20;17.73;;;;;;;3.04;94.58;99651.22;4953528;28;20224;-75
2021/11/28 08:31:11;;;;;;;33.57;18.23;;;;;;;3.08;94.87;99657.25;4953667;28;20252;-75
2021/11/28 08:33:45;;;;;;;38.83;19.33;;;;;;;3.14;94.82;99657.41;4954170;28;20311;-75
2021/11/28 08:36:20;;;;;;;36.00;18.80;;;;;;;3.13;94.38;99651.47;4953908;28;20235;-75
2021/11/28 08:38:48;;;;;;;35.10;19.83;;;;;;;3.18;94.28;99655.00;4953575;28;20292;-75
2021/11/28 08:41:14;;;;;;;31.67;18.43;;;;;;;3.20;94.59;99657.56;4953822;28;20205;-75
2021/11/28 08:43:42;;;;;;;36.73;19.00;;;;;;;3.27;94.39;99657.78;4953448;28;20197;-75
2021/11/28 08:46:07;;;;;;;35.10;19.63;;;;;;;3.34;94.74;99654.63;4953498;28;20683;-75
2021/11/28 08:48:33;;;;;;;34.20;18.43;;;;;;;3.33;95.12;99647.88;4953554;28;20209;-75
2021/11/28 08:51:00;;;;;;;34.17;18.77;;;;;;;3.39;94.64;99653.09;4953822;28;20625;-75
2021/11/28 08:53:25;;;;;;;32.83;18.50;;;;;;;3.42;94.53;99650.66;4953645;28;20681;-74
2021/11/28 08:55:51;;;;;;;31.70;18.43;;;;;;;3.39;94.58;99654.75;4952337;29;20197;-74
2021/11/28 08:58:17;;;;;;;31.27;17.97;;;;;;;3.37;93.64;99661.44;4955099;28;20181;-73
2021/11/28 09:00:43;;;;;;;33.10;18.67;;;;;;;3.39;93.84;99664.88;4953232;28;20240;-74
2021/11/28 09:03:09;;;;;;;33.77;19.00;;;;;;;3.44;93.71;99666.72;4952373;29;20623;-74
2021/11/28 09:05:34;;;;;;;29.90;18.23;;;;;;;3.45;94.10;99663.38;4953431;28;20248;-74
2021/11/28 09:08:02;;;;;;;30.03;18.17;;;;;;;3.50;93.55;99668.56;4951926;28;20217;-74
2021/11/28 09:10:29;;;;;;;32.07;17.97;;;;;;;3.59;93.84;99664.59;4951984;28;20563;-74
2021/11/28 09:12:55;;;;;;;28.80;17.80;;;;;;;3.67;93.86;99672.41;4953212;28;20201;-74
2021/11/28 09:15:21;;;;;;;28.10;16.57;;;;;;;3.70;93.28;99669.97;4953052;28;20193;-74
2021/11/28 09:17:53;;;;;;;29.73;17.20;;;;;;;3.70;93.75;99664.91;4953075;28;20181;-74
2021/11/28 09:20:22;;;;;;;28.57;17.90;;;;;;;3.72;93.32;99669.19;4952557;28;20297;-74
2021/11/28 09:25:15;;;;;;;27.47;17.77;;;;;;;3.81;93.35;99666.91;4952902;28;20185;-76
2021/11/28 09:27:42;;;;;;;27.73;17.63;;;;;;;3.82;92.54;99660.19;4967612;28;20227;-76
2021/11/28 09:30:08;;;;;;;28.10;17.60;;;;;;;3.87;92.78;99661.16;4952416;28;20276;-76
2021/11/28 09:32:33;;;;;;;28.00;17.23;;;;;;;3.88;92.23;99663.75;4933397;28;20225;-75
2021/11/28 09:34:59;;;;;;;27.60;17.93;;;;;;;3.92;92.52;99664.69;4961496;28;20228;-76
2021/11/28 09:37:24;;;;;;;29.67;18.33;;;;;;;3.93;92.26;99669.78;4950677;28;20666;-75
2021/11/28 09:39:50;;;;;;;29.00;17.47;;;;;;;4.01;92.80;99664.91;4951804;28;20663;-76
2021/11/28 09:42:21;;;;;;;28.97;17.57;;;;;;;4.02;92.27;99662.44;4951362;28;20694;-77
2021/11/28 09:44:47;;;;;;;25.23;16.47;;;;;;;4.02;92.01;99666.63;4952418;28;20248;-77
2021/11/28 09:47:13;;;;;;;27.57;17.33;;;;;;;4.05;92.09;99662.47;4952513;28;20207;-77
2021/11/28 09:49:42;;;;;;;26.73;17.27;;;;;;;4.05;91.57;99656.59;4966997;28;20185;-77
2021/11/28 09:52:16;;;;;;;27.70;17.80;;;;;;;4.06;92.05;99651.56;4953651;28;20260;-76
2021/11/28 09:54:46;;;;;;;28.77;17.50;;;;;;;4.06;92.01;99658.28;4964280;28;20202;-77
2021/11/28 09:57:13;;;;;;;25.57;16.43;;;;;;;4.04;92.22;99659.91;4948735;28;20275;-77
2021/11/28 09:59:42;;;;;;;25.03;16.60;;;;;;;3.93;91.61;99661.31;4952983;28;20193;-77
2021/11/28 10:02:11;;;;;;;26.43;18.07;;;;;;;3.97;91.94;99655.53;4952275;28;20201;-78
2021/11/28 10:04:36;;;;;;;29.70;17.63;;;;;;;4.00;92.02;99658.97;4967653;28;20194;-78
2021/11/28 10:07:02;;;;;;;28.63;17.53;;;;;;;4.00;92.25;99664.03;4953256;28;20181;-77
2021/11/28 10:09:28;;;;;;;28.73;17.93;;;;;;;4.13;92.27;99668.63;4951857;28;20556;-76
2021/11/28 10:12:15;;;;;;;26.63;16.20;;;;;;;4.14;91.95;99661.88;4952304;28;20287;-77
2021/11/28 10:14:42;;;;;;;29.30;17.77;;;;;;;4.02;91.46;99662.44;4961921;28;20689;-75
2021/11/28 10:17:09;;;;;;;28.60;17.87;;;;;;;4.10;91.33;99653.31;4953500;28;20193;-77
2021/11/28 10:19:36;;;;;;;28.20;17.37;;;;;;;4.10;91.37;99648.25;4966854;28;20678;-77
2021/11/28 10:22:03;;;;;;;27.20;17.17;;;;;;;4.09;91.56;99650.78;4967077;28;20224;-73
2021/11/28 10:24:29;;;;;;;26.00;17.00;;;;;;;4.05;90.83;99646.47;4956180;28;20265;-74
2021/11/28 10:27:09;;;;;;;27.60;17.03;;;;;;;4.06;90.98;99654.09;4950988;28;20292;-75
2021/11/28 10:29:40;;;;;;;25.83;16.30;;;;;;;4.07;91.17;99652.41;4950801;28;20686;-75
2021/11/28 10:32:07;;;;;;;26.40;16.60;;;;;;;4.08;91.16;99647.38;4951460;28;20211;-75
2021/11/28 10:34:39;;;;;;;26.50;16.80;;;;;;;4.09;91.05;99646.56;4951629;28;20232;-75
2021/11/28 10:37:06;;;;;;;26.50;16.53;;;;;;;4.19;90.90;99650.19;4944767;28;20194;-75
2021/11/28 10:39:54;;;;;;;26.27;15.90;;;;;;;4.27;91.08;99639.41;4950758;28;20193;-75
2021/11/28 10:42:29;;;;;;;25.97;16.37;;;;;;;4.44;90.94;99640.69;4951165;28;20220;-76
2021/11/28 10:45:08;;;;;;;24.07;15.73;;;;;;;4.47;90.46;99648.34;4984982;28;20724;-75
2021/11/28 10:47:45;;;;;;;23.40;15.17;;;;;;;4.45;90.27;99642.41;4949577;29;20275;-75
2021/11/28 10:50:18;;;;;;;25.13;15.50;;;;;;;4.45;90.46;99644.94;4950858;28;20211;-76
2021/11/28 10:52:48;;;;;;;27.77;15.80;;;;;;;4.41;90.44;99649.88;4965501;28;20284;-72
2021/11/28 10:55:22;;;;;;;24.17;15.07;;;;;;;4.34;90.41;99648.03;4954689;28;20267;-73
2021/11/28 10:58:03;;;;;;;26.80;16.10;;;;;;;4.29;90.63;99654.66;4970295;28;20178;-74
2021/11/28 11:00:29;;;;;;;25.87;16.53;;;;;;;4.29;90.95;99662.25;4970272;28;20227;-74
2021/11/28 11:02:54;;;;;;;28.63;17.67;;;;;;;4.24;90.80;99663.81;4985004;28;20219;-73
2021/11/28 11:05:24;;;;;;;26.37;16.00;;;;;;;4.26;90.91;99659.63;4970187;28;20203;-74
2021/11/28 11:07:53;;;;;;;25.67;15.73;;;;;;;4.30;90.54;99653.84;4968888;28;20220;-74
2021/11/28 11:10:18;;;;;;;26.70;16.50;;;;;;;4.37;90.61;99656.56;4970243;28;20195;-74
2021/11/28 11:12:44;;;;;;;28.70;18.03;;;;;;;4.42;90.47;99657.53;4961157;28;20240;-73
2021/11/28 11:15:10;;;;;;;26.50;16.20;;;;;;;4.43;90.44;99659.25;4970481;28;20184;-73
2021/11/28 11:17:55;;;;;;;24.80;17.10;;;;;;;4.38;89.74;99659.94;4970416;28;20191;-73
2021/11/28 11:20:28;;;;;;;26.37;16.33;;;;;;;4.40;89.55;99661.69;4970251;28;20278;-73
2021/11/28 11:22:54;;;;;;;29.13;18.03;;;;;;;4.31;89.51;99660.59;4970372;28;20176;-73
2021/11/28 11:25:28;;;;;;;24.27;16.30;;;;;;;4.36;89.58;99664.97;4970448;28;20184;-73
2021/11/28 11:28:06;;;;;;;27.30;17.57;;;;;;;4.42;89.42;99671.88;4970145;28;20208;-73
2021/11/28 11:30:31;;;;;;;27.33;17.07;;;;;;;4.40;89.32;99673.50;4985246;28;20199;-74
2021/11/28 11:33:01;;;;;;;27.23;17.43;;;;;;;4.28;88.95;99674.06;4974620;28;20232;-74
2021/11/28 11:35:32;;;;;;;28.37;18.10;;;;;;;4.44;89.48;99673.63;4950752;28;20193;-74
2021/11/28 11:38:02;;;;;;;25.77;17.13;;;;;;;4.46;88.99;99673.69;4949108;29;20189;-74
2021/11/28 11:40:28;;;;;;;25.43;17.63;;;;;;;4.37;88.94;99674.28;4950621;28;20263;-73
2021/11/28 11:42:54;;;;;;;26.50;17.73;;;;;;;4.40;89.34;99674.38;4950963;28;20181;-75
2021/11/28 11:45:22;;;;;;;25.43;17.23;;;;;;;4.42;89.29;99667.66;4950879;28;20283;-74
2021/11/28 11:47:48;;;;;;;23.67;16.83;;;;;;;4.38;89.13;99659.94;4950065;28;20868;-74